sensor_id;sensor_type;location;lat;lon;timestamp;pressure;altitude;pressure_sealevel;temperature;humidity
21109;BME280;10712;52.944;9.098;2023-04-22T00:00:05;100970.88;;;20.83;35.60
21109;BME280;10712;52.944;9.098;2023-04-22T00:02:33;100976.75;;;20.78;35.87
21109;BME280;10712;52.944;9.098;2023-04-22T00:05:02;100974.31;;;20.75;35.93
21109;BME280;10712;52.944;9.098;2023-04-22T00:07:28;100974.63;;;20.72;36.11
21109;BME280;10712;52.944;9.098;2023-04-22T00:09:56;100968.66;;;20.69;35.91
21109;BME280;10712;52.944;9.098;2023-04-22T00:12:22;100966.19;;;20.29;36.72
21109;BME280;10712;52.944;9.098;2023-04-22T00:14:48;100963.69;;;20.18;37.05
21109;BME280;10712;52.944;9.098;2023-04-22T00:17:14;100956.81;;;20.23;36.91
21109;BME280;10712;52.944;9.098;2023-04-22T00:19:40;100955.34;;;20.48;36.38
21109;BME280;10712;52.944;9.098;2023-04-22T00:22:06;100951.72;;;20.67;36.45
21109;BME280;10712;52.944;9.098;2023-04-22T00:24:32;100951.63;;;20.59;36.37
21109;BME280;10712;52.944;9.098;2023-04-22T00:26:58;100951.63;;;20.59;36.21
21109;BME280;10712;52.944;9.098;2023-04-22T00:29:26;100936.50;;;20.56;36.29
21109;BME280;10712;52.944;9.098;2023-04-22T00:31:52;100934.38;;;20.60;36.48
21109;BME280;10712;52.944;9.098;2023-04-22T00:34:18;100932.53;;;20.60;36.41
21109;BME280;10712;52.944;9.098;2023-04-22T00:36:44;100932.53;;;20.60;36.37
21109;BME280;10712;52.944;9.098;2023-04-22T00:39:11;100935.66;;;20.83;35.69
21109;BME280;10712;52.944;9.098;2023-04-22T00:41:38;100930.75;;;20.69;35.94
21109;BME280;10712;52.944;9.098;2023-04-22T00:44:09;100927.94;;;20.61;36.03
21109;BME280;10712;52.944;9.098;2023-04-22T00:46:37;100918.53;;;20.65;35.97
21109;BME280;10712;52.944;9.098;2023-04-22T00:49:05;100916.03;;;20.54;36.22
21109;BME280;10712;52.944;9.098;2023-04-22T00:51:31;100914.84;;;20.56;36.16
21109;BME280;10712;52.944;9.098;2023-04-22T00:53:58;100909.59;;;20.55;36.38
21109;BME280;10712;52.944;9.098;2023-04-22T00:56:27;100909.31;;;20.58;36.31
21109;BME280;10712;52.944;9.098;2023-04-22T00:58:55;100907.44;;;20.58;36.19
21109;BME280;10712;52.944;9.098;2023-04-22T01:01:21;100904.28;;;20.63;36.10
21109;BME280;10712;52.944;9.098;2023-04-22T01:03:49;100905.75;;;20.57;36.33
21109;BME280;10712;52.944;9.098;2023-04-22T01:06:18;100906.50;;;20.77;35.96
21109;BME280;10712;52.944;9.098;2023-04-22T01:08:45;100907.38;;;20.68;35.95
21109;BME280;10712;52.944;9.098;2023-04-22T01:11:12;100911.41;;;20.64;35.95
21109;BME280;10712;52.944;9.098;2023-04-22T01:13:38;100908.47;;;20.75;35.81
21109;BME280;10712;52.944;9.098;2023-04-22T01:16:05;100911.09;;;20.94;35.54
21109;BME280;10712;52.944;9.098;2023-04-22T01:18:34;100914.47;;;20.78;35.42
21109;BME280;10712;52.944;9.098;2023-04-22T01:21:01;100906.13;;;20.90;35.40
21109;BME280;10712;52.944;9.098;2023-04-22T01:23:27;100913.00;;;20.84;35.57
21109;BME280;10712;52.944;9.098;2023-04-22T01:25:53;100912.50;;;20.71;35.63
21109;BME280;10712;52.944;9.098;2023-04-22T01:28:20;100916.22;;;20.70;35.86
21109;BME280;10712;52.944;9.098;2023-04-22T01:30:47;100913.94;;;20.38;36.37
21109;BME280;10712;52.944;9.098;2023-04-22T01:33:15;100918.50;;;20.74;35.75
21109;BME280;10712;52.944;9.098;2023-04-22T01:35:42;100908.59;;;20.83;35.81
21109;BME280;10712;52.944;9.098;2023-04-22T01:38:11;100908.66;;;20.73;35.82
21109;BME280;10712;52.944;9.098;2023-04-22T01:40:38;100903.38;;;20.72;35.93
21109;BME280;10712;52.944;9.098;2023-04-22T01:43:04;100906.00;;;20.64;36.02
21109;BME280;10712;52.944;9.098;2023-04-22T01:45:30;100898.16;;;20.61;35.87
21109;BME280;10712;52.944;9.098;2023-04-22T01:47:56;100898.16;;;20.61;36.01
21109;BME280;10712;52.944;9.098;2023-04-22T01:50:23;100895.16;;;20.64;36.07
21109;BME280;10712;52.944;9.098;2023-04-22T01:52:49;100896.25;;;20.71;35.91
21109;BME280;10712;52.944;9.098;2023-04-22T01:55:15;100902.03;;;20.58;36.16
21109;BME280;10712;52.944;9.098;2023-04-22T01:57:42;100897.63;;;20.57;35.95
21109;BME280;10712;52.944;9.098;2023-04-22T02:00:09;100904.59;;;20.60;36.15
21109;BME280;10712;52.944;9.098;2023-04-22T02:02:38;100898.69;;;20.47;36.52
21109;BME280;10712;52.944;9.098;2023-04-22T02:05:06;100902.38;;;20.46;36.66
21109;BME280;10712;52.944;9.098;2023-04-22T02:07:32;100907.53;;;20.39;36.42
21109;BME280;10712;52.944;9.098;2023-04-22T02:09:58;100903.97;;;20.38;36.47
21109;BME280;10712;52.944;9.098;2023-04-22T02:12:26;100891.00;;;20.32;36.71
21109;BME280;10712;52.944;9.098;2023-04-22T02:14:51;100899.00;;;20.24;37.03
21109;BME280;10712;52.944;9.098;2023-04-22T02:17:17;100892.72;;;20.33;36.94
21109;BME280;10712;52.944;9.098;2023-04-22T02:19:44;100893.88;;;20.31;37.05
21109;BME280;10712;52.944;9.098;2023-04-22T02:22:10;100892.03;;;20.22;36.96
21109;BME280;10712;52.944;9.098;2023-04-22T02:24:36;100892.59;;;20.25;36.85
21109;BME280;10712;52.944;9.098;2023-04-22T02:27:02;100893.34;;;20.18;36.99
21109;BME280;10712;52.944;9.098;2023-04-22T02:29:27;100889.06;;;20.15;37.22
21109;BME280;10712;52.944;9.098;2023-04-22T02:31:58;100885.63;;;20.23;37.18
21109;BME280;10712;52.944;9.098;2023-04-22T02:34:24;100894.75;;;20.22;36.96
21109;BME280;10712;52.944;9.098;2023-04-22T02:36:52;100897.50;;;20.12;37.01
21109;BME280;10712;52.944;9.098;2023-04-22T02:39:18;100892.81;;;19.95;37.56
21109;BME280;10712;52.944;9.098;2023-04-22T02:41:44;100888.81;;;19.99;37.34
21109;BME280;10712;52.944;9.098;2023-04-22T02:44:11;100887.97;;;19.98;37.59
21109;BME280;10712;52.944;9.098;2023-04-22T02:46:36;100889.53;;;20.01;37.52
21109;BME280;10712;52.944;9.098;2023-04-22T02:49:02;100886.56;;;19.85;37.78
21109;BME280;10712;52.944;9.098;2023-04-22T02:51:29;100888.63;;;19.63;37.97
21109;BME280;10712;52.944;9.098;2023-04-22T02:53:56;100890.88;;;19.39;38.65
21109;BME280;10712;52.944;9.098;2023-04-22T02:56:22;100884.63;;;19.29;38.79
21109;BME280;10712;52.944;9.098;2023-04-22T02:58:47;100872.81;;;19.69;38.40
21109;BME280;10712;52.944;9.098;2023-04-22T03:01:13;100880.94;;;19.69;38.04
21109;BME280;10712;52.944;9.098;2023-04-22T03:03:40;100868.69;;;19.64;38.17
21109;BME280;10712;52.944;9.098;2023-04-22T03:06:08;100862.88;;;19.59;38.29
21109;BME280;10712;52.944;9.098;2023-04-22T03:08:34;100870.44;;;19.56;38.45
21109;BME280;10712;52.944;9.098;2023-04-22T03:10:59;100866.44;;;19.50;38.57
21109;BME280;10712;52.944;9.098;2023-04-22T03:13:25;100872.38;;;19.44;38.61
21109;BME280;10712;52.944;9.098;2023-04-22T03:15:51;100873.66;;;19.40;38.84
21109;BME280;10712;52.944;9.098;2023-04-22T03:18:18;100865.16;;;19.35;38.80
21109;BME280;10712;52.944;9.098;2023-04-22T03:20:44;100855.59;;;19.31;39.10
21109;BME280;10712;52.944;9.098;2023-04-22T03:23:09;100845.97;;;19.28;38.97
21109;BME280;10712;52.944;9.098;2023-04-22T03:25:36;100851.50;;;19.27;38.97
21109;BME280;10712;52.944;9.098;2023-04-22T03:28:03;100856.03;;;19.26;38.99
21109;BME280;10712;52.944;9.098;2023-04-22T03:30:29;100850.78;;;19.35;38.84
21109;BME280;10712;52.944;9.098;2023-04-22T03:32:56;100847.22;;;19.34;38.89
21109;BME280;10712;52.944;9.098;2023-04-22T03:35:32;100849.94;;;19.34;38.98
21109;BME280;10712;52.944;9.098;2023-04-22T03:38:00;100847.22;;;19.34;38.85
21109;BME280;10712;52.944;9.098;2023-04-22T03:40:30;100846.22;;;19.45;38.80
21109;BME280;10712;52.944;9.098;2023-04-22T03:42:56;100840.25;;;19.41;38.87
21109;BME280;10712;52.944;9.098;2023-04-22T03:45:22;100854.19;;;19.37;38.83
21109;BME280;10712;52.944;9.098;2023-04-22T03:48:00;100841.97;;;19.42;38.99
21109;BME280;10712;52.944;9.098;2023-04-22T03:50:35;100849.63;;;19.37;38.92
21109;BME280;10712;52.944;9.098;2023-04-22T03:53:01;100848.50;;;19.30;39.09
21109;BME280;10712;52.944;9.098;2023-04-22T03:55:27;100851.91;;;19.32;39.31
21109;BME280;10712;52.944;9.098;2023-04-22T03:57:54;100855.59;;;19.31;39.40
21109;BME280;10712;52.944;9.098;2023-04-22T04:00:20;100853.47;;;19.44;39.11
21109;BME280;10712;52.944;9.098;2023-04-22T04:02:54;100851.66;;;19.35;39.34
21109;BME280;10712;52.944;9.098;2023-04-22T04:05:24;100855.34;;;19.34;39.45
21109;BME280;10712;52.944;9.098;2023-04-22T04:07:50;100851.66;;;19.35;39.53
21109;BME280;10712;52.944;9.098;2023-04-22T04:10:16;100854.03;;;19.38;39.61
21109;BME280;10712;52.944;9.098;2023-04-22T04:12:42;100852.78;;;19.42;39.51
21109;BME280;10712;52.944;9.098;2023-04-22T04:15:08;100849.78;;;19.45;39.33
21109;BME280;10712;52.944;9.098;2023-04-22T04:17:34;100837.72;;;19.49;39.24
21109;BME280;10712;52.944;9.098;2023-04-22T04:20:02;100847.50;;;19.50;39.32
21109;BME280;10712;52.944;9.098;2023-04-22T04:22:29;100852.63;;;19.53;39.22
21109;BME280;10712;52.944;9.098;2023-04-22T04:24:58;100851.34;;;19.57;39.21
21109;BME280;10712;52.944;9.098;2023-04-22T04:27:29;100841.41;;;19.48;39.36
21109;BME280;10712;52.944;9.098;2023-04-22T04:29:55;100848.34;;;19.41;39.43
21109;BME280;10712;52.944;9.098;2023-04-22T04:32:34;100835.84;;;19.40;39.44
21109;BME280;10712;52.944;9.098;2023-04-22T04:35:05;100833.72;;;19.34;39.54
21109;BME280;10712;52.944;9.098;2023-04-22T04:37:31;100826.03;;;19.29;39.56
21109;BME280;10712;52.944;9.098;2023-04-22T04:40:06;100822.59;;;19.37;39.56
21109;BME280;10712;52.944;9.098;2023-04-22T04:42:46;100822.34;;;19.31;39.70
21109;BME280;10712;52.944;9.098;2023-04-22T04:45:19;100829.59;;;19.40;39.59
21109;BME280;10712;52.944;9.098;2023-04-22T04:47:47;100826.59;;;19.33;39.78
21109;BME280;10712;52.944;9.098;2023-04-22T04:50:21;100816.66;;;19.34;39.57
21109;BME280;10712;52.944;9.098;2023-04-22T04:52:48;100821.78;;;19.46;39.64
21109;BME280;10712;52.944;9.098;2023-04-22T04:55:16;100818.50;;;19.33;39.68
21109;BME280;10712;52.944;9.098;2023-04-22T04:57:44;100825.75;;;19.42;39.67
21109;BME280;10712;52.944;9.098;2023-04-22T05:00:12;100816.94;;;19.31;39.88
21109;BME280;10712;52.944;9.098;2023-04-22T05:02:39;100822.59;;;19.37;39.63
21109;BME280;10712;52.944;9.098;2023-04-22T05:05:06;100830.59;;;19.48;39.52
21109;BME280;10712;52.944;9.098;2023-04-22T05:07:33;100819.34;;;19.53;39.50
21109;BME280;10712;52.944;9.098;2023-04-22T05:09:59;100818.34;;;19.44;39.63
21109;BME280;10712;52.944;9.098;2023-04-22T05:12:26;100823.75;;;19.44;39.67
21109;BME280;10712;52.944;9.098;2023-04-22T05:14:52;100825.44;;;19.45;39.75
21109;BME280;10712;52.944;9.098;2023-04-22T05:17:19;100819.50;;;19.51;39.79
21109;BME280;10712;52.944;9.098;2023-04-22T05:19:45;100817.66;;;19.52;39.92
21109;BME280;10712;52.944;9.098;2023-04-22T05:22:11;100813.81;;;19.54;39.61
21109;BME280;10712;52.944;9.098;2023-04-22T05:24:37;100816.34;;;19.65;39.76
21109;BME280;10712;52.944;9.098;2023-04-22T05:27:03;100817.34;;;19.64;39.80
21109;BME280;10712;52.944;9.098;2023-04-22T05:29:30;100814.28;;;19.87;39.46
21109;BME280;10712;52.944;9.098;2023-04-22T05:32:00;100805.78;;;19.82;39.49
21109;BME280;10712;52.944;9.098;2023-04-22T05:34:27;100811.19;;;19.82;39.49
21109;BME280;10712;52.944;9.098;2023-04-22T05:36:53;100809.75;;;19.78;39.74
21109;BME280;10712;52.944;9.098;2023-04-22T05:39:20;100823.91;;;19.99;39.44
21109;BME280;10712;52.944;9.098;2023-04-22T05:41:48;100814.00;;;19.90;39.64
21109;BME280;10712;52.944;9.098;2023-04-22T05:44:15;100817.94;;;20.05;39.34
21109;BME280;10712;52.944;9.098;2023-04-22T05:46:42;100827.31;;;20.11;39.37
21109;BME280;10712;52.944;9.098;2023-04-22T05:49:08;100824.72;;;20.19;39.46
21109;BME280;10712;52.944;9.098;2023-04-22T05:51:52;100829.78;;;20.31;39.32
21109;BME280;10712;52.944;9.098;2023-04-22T05:54:21;100826.66;;;20.26;39.78
21109;BME280;10712;52.944;9.098;2023-04-22T05:56:47;100822.38;;;20.33;39.62
21109;BME280;10712;52.944;9.098;2023-04-22T05:59:13;100819.16;;;20.48;39.13
21109;BME280;10712;52.944;9.098;2023-04-22T06:01:39;100817.50;;;20.47;39.19
21109;BME280;10712;52.944;9.098;2023-04-22T06:04:07;100817.13;;;20.59;39.33
21109;BME280;10712;52.944;9.098;2023-04-22T06:06:34;100825.91;;;20.61;39.04
21109;BME280;10712;52.944;9.098;2023-04-22T06:09:01;100816.44;;;20.75;38.88
21109;BME280;10712;52.944;9.098;2023-04-22T06:11:26;100818.47;;;20.91;38.76
21109;BME280;10712;52.944;9.098;2023-04-22T06:13:53;100824.34;;;20.86;39.04
21109;BME280;10712;52.944;9.098;2023-04-22T06:16:20;100826.81;;;20.97;38.69
21109;BME280;10712;52.944;9.098;2023-04-22T06:18:46;100819.53;;;20.98;38.65
21109;BME280;10712;52.944;9.098;2023-04-22T06:21:13;100828.47;;;21.08;38.43
21109;BME280;10712;52.944;9.098;2023-04-22T06:23:39;100824.97;;;21.15;38.33
21109;BME280;10712;52.944;9.098;2023-04-22T06:26:05;100825.28;;;21.12;38.39
21109;BME280;10712;52.944;9.098;2023-04-22T06:28:31;100826.13;;;21.13;38.88
21109;BME280;10712;52.944;9.098;2023-04-22T06:31:01;100820.97;;;21.19;39.02
21109;BME280;10712;52.944;9.098;2023-04-22T06:33:27;100815.00;;;21.34;39.00
21109;BME280;10712;52.944;9.098;2023-04-22T06:35:54;100810.66;;;21.41;38.71
21109;BME280;10712;52.944;9.098;2023-04-22T06:38:20;100811.03;;;21.46;39.09
21109;BME280;10712;52.944;9.098;2023-04-22T06:41:05;100803.47;;;21.57;39.12
21109;BME280;10712;52.944;9.098;2023-04-22T06:43:36;100799.13;;;21.65;39.00
21109;BME280;10712;52.944;9.098;2023-04-22T06:46:22;100803.06;;;21.70;39.13
21109;BME280;10712;52.944;9.098;2023-04-22T06:48:51;100799.06;;;21.82;38.43
21109;BME280;10712;52.944;9.098;2023-04-22T06:51:36;100798.72;;;21.77;38.46
21109;BME280;10712;52.944;9.098;2023-04-22T06:54:01;100797.31;;;21.73;38.61
21109;BME280;10712;52.944;9.098;2023-04-22T06:56:27;100789.53;;;21.78;38.59
21109;BME280;10712;52.944;9.098;2023-04-22T06:58:54;100787.53;;;21.80;38.42
21109;BME280;10712;52.944;9.098;2023-04-22T07:01:20;100786.81;;;21.78;38.82
21109;BME280;10712;52.944;9.098;2023-04-22T07:03:46;100783.16;;;21.87;38.79
21109;BME280;10712;52.944;9.098;2023-04-22T07:06:13;100783.38;;;21.94;38.90
21109;BME280;10712;52.944;9.098;2023-04-22T07:08:39;100790.94;;;22.08;38.72
21109;BME280;10712;52.944;9.098;2023-04-22T07:11:06;100796.91;;;22.12;38.78
21109;BME280;10712;52.944;9.098;2023-04-22T07:13:48;100796.56;;;22.15;38.75
21109;BME280;10712;52.944;9.098;2023-04-22T07:16:14;100797.59;;;22.22;38.74
21109;BME280;10712;52.944;9.098;2023-04-22T07:18:40;100810.06;;;22.32;39.34
21109;BME280;10712;52.944;9.098;2023-04-22T07:21:05;100805.97;;;22.36;39.06
21109;BME280;10712;52.944;9.098;2023-04-22T07:23:31;100813.81;;;22.48;38.48
21109;BME280;10712;52.944;9.098;2023-04-22T07:25:57;100810.09;;;22.49;38.90
21109;BME280;10712;52.944;9.098;2023-04-22T07:28:23;100815.34;;;22.50;38.74
21109;BME280;10712;52.944;9.098;2023-04-22T07:30:49;100811.97;;;22.56;38.93
21109;BME280;10712;52.944;9.098;2023-04-22T07:33:14;100803.25;;;22.78;38.59
21109;BME280;10712;52.944;9.098;2023-04-22T07:35:40;100800.22;;;22.98;38.42
21109;BME280;10712;52.944;9.098;2023-04-22T07:38:06;100799.91;;;23.01;38.78
21109;BME280;10712;52.944;9.098;2023-04-22T07:40:32;100793.44;;;23.10;38.75
21109;BME280;10712;52.944;9.098;2023-04-22T07:42:58;100793.44;;;23.26;38.62
21109;BME280;10712;52.944;9.098;2023-04-22T07:45:24;100786.63;;;23.38;38.37
21109;BME280;10712;52.944;9.098;2023-04-22T07:47:50;100789.06;;;23.49;38.31
21109;BME280;10712;52.944;9.098;2023-04-22T07:50:15;100791.25;;;23.62;38.25
21109;BME280;10712;52.944;9.098;2023-04-22T07:52:41;100790.69;;;23.75;37.91
21109;BME280;10712;52.944;9.098;2023-04-22T07:55:07;100797.47;;;23.87;37.61
21109;BME280;10712;52.944;9.098;2023-04-22T07:57:33;100786.41;;;23.97;37.95
21109;BME280;10712;52.944;9.098;2023-04-22T08:00:05;100793.69;;;24.04;37.64
21109;BME280;10712;52.944;9.098;2023-04-22T08:02:37;100792.47;;;24.07;36.95
21109;BME280;10712;52.944;9.098;2023-04-22T08:05:03;100783.78;;;24.11;36.83
21109;BME280;10712;52.944;9.098;2023-04-22T08:07:29;100785.13;;;24.15;37.13
21109;BME280;10712;52.944;9.098;2023-04-22T08:09:55;100785.97;;;24.24;36.74
21109;BME280;10712;52.944;9.098;2023-04-22T08:12:21;100784.13;;;24.24;36.78
21109;BME280;10712;52.944;9.098;2023-04-22T08:14:47;100778.28;;;24.27;37.30
21109;BME280;10712;52.944;9.098;2023-04-22T08:17:13;100774.88;;;24.33;37.11
21109;BME280;10712;52.944;9.098;2023-04-22T08:19:38;100783.44;;;24.14;37.59
21109;BME280;10712;52.944;9.098;2023-04-22T08:22:05;100778.34;;;24.11;38.03
21109;BME280;10712;52.944;9.098;2023-04-22T08:24:31;100773.22;;;24.24;38.21
21109;BME280;10712;52.944;9.098;2023-04-22T08:26:57;100775.88;;;24.41;37.76
21109;BME280;10712;52.944;9.098;2023-04-22T08:29:23;100782.25;;;24.56;37.83
21109;BME280;10712;52.944;9.098;2023-04-22T08:31:49;100785.03;;;24.70;38.21
21109;BME280;10712;52.944;9.098;2023-04-22T08:34:15;100783.25;;;24.86;38.37
21109;BME280;10712;52.944;9.098;2023-04-22T08:36:41;100788.41;;;25.03;37.75
21109;BME280;10712;52.944;9.098;2023-04-22T08:39:07;100780.69;;;25.15;37.37
21109;BME280;10712;52.944;9.098;2023-04-22T08:41:34;100778.91;;;25.22;37.36
21109;BME280;10712;52.944;9.098;2023-04-22T08:44:01;100777.22;;;25.21;37.04
21109;BME280;10712;52.944;9.098;2023-04-22T08:46:28;100782.19;;;25.18;37.57
21109;BME280;10712;52.944;9.098;2023-04-22T08:48:58;100775.16;;;25.23;37.12
21109;BME280;10712;52.944;9.098;2023-04-22T08:51:30;100770.19;;;25.27;36.94
21109;BME280;10712;52.944;9.098;2023-04-22T08:53:58;100767.00;;;25.38;36.65
21109;BME280;10712;52.944;9.098;2023-04-22T08:56:27;100761.28;;;25.47;36.50
21109;BME280;10712;52.944;9.098;2023-04-22T08:58:53;100753.88;;;25.56;36.44
21109;BME280;10712;52.944;9.098;2023-04-22T09:01:21;100745.91;;;25.69;35.62
21109;BME280;10712;52.944;9.098;2023-04-22T09:03:48;100743.75;;;25.79;35.12
21109;BME280;10712;52.944;9.098;2023-04-22T09:06:16;100735.47;;;25.87;35.30
21109;BME280;10712;52.944;9.098;2023-04-22T09:08:45;100736.50;;;26.01;35.69
21109;BME280;10712;52.944;9.098;2023-04-22T09:11:11;100738.34;;;26.15;34.10
21109;BME280;10712;52.944;9.098;2023-04-22T09:13:37;100734.78;;;26.30;34.43
21109;BME280;10712;52.944;9.098;2023-04-22T09:16:03;100724.97;;;26.35;34.29
21109;BME280;10712;52.944;9.098;2023-04-22T09:18:28;100725.78;;;26.50;34.16
21109;BME280;10712;52.944;9.098;2023-04-22T09:20:55;100729.69;;;26.62;34.56
21109;BME280;10712;52.944;9.098;2023-04-22T09:23:21;100721.00;;;26.74;34.99
21109;BME280;10712;52.944;9.098;2023-04-22T09:25:48;100719.00;;;26.82;34.67
21109;BME280;10712;52.944;9.098;2023-04-22T09:28:18;100716.13;;;26.90;35.11
21109;BME280;10712;52.944;9.098;2023-04-22T09:30:45;100728.03;;;27.04;34.09
21109;BME280;10712;52.944;9.098;2023-04-22T09:33:12;100718.47;;;27.15;33.86
21109;BME280;10712;52.944;9.098;2023-04-22T09:35:43;100716.03;;;27.26;33.38
21109;BME280;10712;52.944;9.098;2023-04-22T09:38:12;100722.09;;;27.50;32.49
21109;BME280;10712;52.944;9.098;2023-04-22T09:40:42;100711.66;;;27.60;33.31
21109;BME280;10712;52.944;9.098;2023-04-22T09:43:09;100718.91;;;27.74;32.67
21109;BME280;10712;52.944;9.098;2023-04-22T09:45:40;100719.41;;;27.84;33.06
21109;BME280;10712;52.944;9.098;2023-04-22T09:48:12;100712.69;;;27.87;33.03
21109;BME280;10712;52.944;9.098;2023-04-22T09:50:41;100702.16;;;27.90;32.81
21109;BME280;10712;52.944;9.098;2023-04-22T09:53:11;100708.38;;;28.12;32.31
21109;BME280;10712;52.944;9.098;2023-04-22T09:55:43;100702.69;;;28.13;32.67
21109;BME280;10712;52.944;9.098;2023-04-22T09:58:12;100703.81;;;28.26;32.14
21109;BME280;10712;52.944;9.098;2023-04-22T10:00:48;100710.38;;;28.38;31.85
21109;BME280;10712;52.944;9.098;2023-04-22T10:03:15;100700.28;;;28.45;31.65
21109;BME280;10712;52.944;9.098;2023-04-22T10:05:41;100706.63;;;28.52;31.59
21109;BME280;10712;52.944;9.098;2023-04-22T10:08:09;100705.16;;;28.56;31.50
21109;BME280;10712;52.944;9.098;2023-04-22T10:10:37;100698.22;;;28.67;31.80
21109;BME280;10712;52.944;9.098;2023-04-22T10:13:04;100683.88;;;28.71;31.80
21109;BME280;10712;52.944;9.098;2023-04-22T10:15:44;100679.72;;;28.82;32.47
21109;BME280;10712;52.944;9.098;2023-04-22T10:18:16;100677.41;;;28.92;31.95
21109;BME280;10712;52.944;9.098;2023-04-22T10:20:44;100669.59;;;29.02;32.15
21109;BME280;10712;52.944;9.098;2023-04-22T10:23:18;100681.81;;;29.13;31.96
21109;BME280;10712;52.944;9.098;2023-04-22T10:25:47;100667.91;;;29.21;30.54
21109;BME280;10712;52.944;9.098;2023-04-22T10:28:16;100670.84;;;29.26;31.08
21109;BME280;10712;52.944;9.098;2023-04-22T10:30:43;100666.44;;;29.38;30.29
21109;BME280;10712;52.944;9.098;2023-04-22T10:36:15;100672.53;;;29.40;30.95
21109;BME280;10712;52.944;9.098;2023-04-22T10:41:29;100669.56;;;29.55;31.41
21109;BME280;10712;52.944;9.098;2023-04-22T10:44:00;100668.06;;;29.65;30.85
21109;BME280;10712;52.944;9.098;2023-04-22T10:49:16;100663.13;;;29.94;30.69
21109;BME280;10712;52.944;9.098;2023-04-22T10:51:49;100666.47;;;30.02;30.88
21109;BME280;10712;52.944;9.098;2023-04-22T10:57:10;100664.94;;;30.13;30.49
21109;BME280;10712;52.944;9.098;2023-04-22T10:59:55;100654.56;;;30.15;29.76
21109;BME280;10712;52.944;9.098;2023-04-22T11:02:23;100656.69;;;30.13;29.20
21109;BME280;10712;52.944;9.098;2023-04-22T11:04:50;100647.66;;;30.06;29.63
21109;BME280;10712;52.944;9.098;2023-04-22T11:10:07;100644.13;;;29.86;30.20
21109;BME280;10712;52.944;9.098;2023-04-22T11:15:09;100633.88;;;30.12;29.93
21109;BME280;10712;52.944;9.098;2023-04-22T11:17:36;100629.56;;;30.23;30.19
21109;BME280;10712;52.944;9.098;2023-04-22T11:20:04;100626.31;;;30.39;29.78
21109;BME280;10712;52.944;9.098;2023-04-22T11:22:35;100635.34;;;30.46;29.66
21109;BME280;10712;52.944;9.098;2023-04-22T11:25:02;100634.66;;;30.58;30.34
21109;BME280;10712;52.944;9.098;2023-04-22T11:27:31;100624.72;;;30.57;28.92
21109;BME280;10712;52.944;9.098;2023-04-22T11:30:11;100611.22;;;30.55;29.43
21109;BME280;10712;52.944;9.098;2023-04-22T11:32:48;100604.41;;;30.58;29.08
21109;BME280;10712;52.944;9.098;2023-04-22T11:35:36;100598.00;;;30.64;29.10
21109;BME280;10712;52.944;9.098;2023-04-22T11:38:05;100600.97;;;30.69;29.78
21109;BME280;10712;52.944;9.098;2023-04-22T11:40:34;100594.56;;;30.75;29.20
21109;BME280;10712;52.944;9.098;2023-04-22T11:43:03;100597.47;;;30.80;28.92
21109;BME280;10712;52.944;9.098;2023-04-22T11:45:32;100603.81;;;30.80;29.04
21109;BME280;10712;52.944;9.098;2023-04-22T11:48:00;100594.88;;;30.85;29.05
21109;BME280;10712;52.944;9.098;2023-04-22T11:50:30;100591.06;;;30.86;28.93
21109;BME280;10712;52.944;9.098;2023-04-22T11:53:02;100586.81;;;30.90;28.46
21109;BME280;10712;52.944;9.098;2023-04-22T11:55:34;100598.59;;;30.97;28.52
21109;BME280;10712;52.944;9.098;2023-04-22T11:58:12;100581.59;;;31.00;28.83
21109;BME280;10712;52.944;9.098;2023-04-22T12:00:47;100585.56;;;30.86;28.93
21109;BME280;10712;52.944;9.098;2023-04-22T12:03:16;100580.34;;;30.78;28.61
21109;BME280;10712;52.944;9.098;2023-04-22T12:05:50;100585.06;;;30.71;28.61
21109;BME280;10712;52.944;9.098;2023-04-22T12:08:19;100570.06;;;30.67;28.84
21109;BME280;10712;52.944;9.098;2023-04-22T12:10:52;100563.00;;;30.52;29.29
21109;BME280;10712;52.944;9.098;2023-04-22T12:13:43;100565.56;;;30.47;28.47
21109;BME280;10712;52.944;9.098;2023-04-22T12:16:17;100557.50;;;30.52;28.98
21109;BME280;10712;52.944;9.098;2023-04-22T12:18:54;100560.88;;;30.55;28.78
21109;BME280;10712;52.944;9.098;2023-04-22T12:21:24;100550.31;;;30.51;28.70
21109;BME280;10712;52.944;9.098;2023-04-22T12:24:02;100551.16;;;30.52;28.50
21109;BME280;10712;52.944;9.098;2023-04-22T12:26:32;100551.03;;;30.65;28.64
21109;BME280;10712;52.944;9.098;2023-04-22T12:28:59;100541.66;;;30.73;28.70
21109;BME280;10712;52.944;9.098;2023-04-22T12:31:26;100547.50;;;30.83;27.86
21109;BME280;10712;52.944;9.098;2023-04-22T12:33:53;100541.53;;;30.86;28.12
21109;BME280;10712;52.944;9.098;2023-04-22T12:36:19;100537.03;;;30.91;28.33
21109;BME280;10712;52.944;9.098;2023-04-22T12:38:45;100541.41;;;30.99;28.17
21109;BME280;10712;52.944;9.098;2023-04-22T12:41:12;100537.31;;;31.08;28.72
21109;BME280;10712;52.944;9.098;2023-04-22T12:43:38;100531.81;;;31.08;28.89
21109;BME280;10712;52.944;9.098;2023-04-22T12:46:06;100531.88;;;31.20;28.21
21109;BME280;10712;52.944;9.098;2023-04-22T12:48:32;100536.25;;;31.27;28.03
21109;BME280;10712;52.944;9.098;2023-04-22T12:50:59;100533.41;;;31.34;28.03
21109;BME280;10712;52.944;9.098;2023-04-22T12:53:26;100530.84;;;31.39;27.80
21109;BME280;10712;52.944;9.098;2023-04-22T12:55:53;100530.84;;;31.39;28.12
21109;BME280;10712;52.944;9.098;2023-04-22T12:58:19;100525.06;;;31.41;27.75
21109;BME280;10712;52.944;9.098;2023-04-22T13:00:45;100528.31;;;31.38;27.72
21109;BME280;10712;52.944;9.098;2023-04-22T13:03:11;100517.97;;;31.33;27.14
21109;BME280;10712;52.944;9.098;2023-04-22T13:05:37;100524.94;;;31.36;27.64
21109;BME280;10712;52.944;9.098;2023-04-22T13:08:04;100518.91;;;31.45;27.71
21109;BME280;10712;52.944;9.098;2023-04-22T13:10:31;100508.25;;;31.49;27.77